Time;durP1;ratioP1;P1;durP2;ratioP2;P2;SDS_P1;SDS_P2;PMS_P1;PMS_P2;Temp;Humidity;BMP_temperature;BMP_pressure;BME280_temperature;BME280_humidity;BME280_pressure;Samples;Min_cycle;Max_cycle;Signal;HPM_P1;HPM_P2
2023/09/12 00:00:38;;;;;;;34.83;4.00;;;;;;;23.86;62.66;99092.16;7307137;19;129240;-40
2023/09/12 00:03:04;;;;;;;37.60;4.60;;;;;;;23.96;62.71;99111.19;7308400;19;129531;-39
2023/09/12 00:05:29;;;;;;;100.07;7.53;;;;;;;23.96;62.91;99107.72;7312147;19;129132;-35
2023/09/12 00:07:54;;;;;;;44.73;4.87;;;;;;;23.95;62.99;99112.16;7315993;19;129519;-39
2023/09/12 00:10:20;;;;;;;77.20;6.50;;;;;;;23.96;63.31;99112.97;7313343;19;129407;-39
2023/09/12 00:12:45;;;;;;;28.67;3.67;;;;;;;23.95;63.10;99112.16;7315940;19;130051;-39
2023/09/12 00:15:12;;;;;;;78.17;6.10;;;;;;;23.96;63.38;99116.44;7316657;19;129205;-39
2023/09/12 00:17:37;;;;;;;;;;;;;;;24.00;63.63;99107.25;7316145;19;129570;-38
2023/09/12 00:20:06;;;;;;;33.77;4.23;;;;;;;23.94;63.33;99110.53;7314437;19;130042;-42
2023/09/12 00:22:31;;;;;;;64.15;5.63;;;;;;;23.95;63.13;99112.16;7315129;19;129842;-42
2023/09/12 00:24:56;;;;;;;57.80;4.90;;;;;;;23.94;62.73;99105.28;7316875;19;129176;-42
2023/09/12 00:27:22;;;;;;;55.70;5.53;;;;;;;23.95;62.95;99103.44;7316504;19;128964;-41
2023/09/12 00:29:47;;;;;;;35.33;4.67;;;;;;;23.96;63.03;99113.81;7314542;19;129410;-37
2023/09/12 00:32:12;;;;;;;50.53;5.03;;;;;;;23.96;63.35;99112.97;7316121;19;129218;-41
2023/09/12 00:34:37;;;;;;;78.10;6.10;;;;;;;23.95;63.19;99100.81;7313595;19;129069;-40
2023/09/12 00:37:04;;;;;;;66.73;5.80;;;;;;;23.96;63.07;99105.94;7315150;19;129806;-41
2023/09/12 00:39:30;;;;;;;63.33;5.68;;;;;;;23.96;63.34;99103.31;7312590;19;129650;-37
2023/09/12 00:41:55;;;;;;;68.47;5.90;;;;;;;23.85;62.61;99085.25;7312094;19;129540;-40
2023/09/12 00:44:21;;;;;;;88.97;6.77;;;;;;;23.96;63.41;99108.56;7313748;19;129735;-41
2023/09/12 00:46:49;;;;;;;37.60;4.33;;;;;;;23.96;63.38;99102.47;7312207;19;130079;-41
2023/09/12 00:49:16;;;;;;;45.20;4.53;;;;;;;23.94;63.46;99100.03;7310346;19;129765;-38
2023/09/12 00:51:43;;;;;;;93.20;7.13;;;;;;;23.95;63.51;99099.03;7313888;19;131579;-40
2023/09/12 00:54:09;;;;;;;68.82;5.97;;;;;;;23.96;62.65;99099.84;7316261;19;129968;-42
2023/09/12 00:56:35;;;;;;;57.43;5.40;;;;;;;23.95;63.28;99101.66;7313556;19;129363;-36
2023/09/12 00:59:01;;;;;;;39.10;4.47;;;;;;;23.95;63.24;99104.28;7313001;19;129718;-41
2023/09/12 01:01:27;;;;;;;69.93;6.03;;;;;;;23.95;63.11;99101.66;7310063;19;130413;-39
2023/09/12 01:03:54;;;;;;;58.40;5.07;;;;;;;23.97;62.85;99104.94;7314678;19;129245;-40
2023/09/12 01:06:23;;;;;;;33.47;3.80;;;;;;;23.96;63.35;99105.09;7314388;19;129153;-45
2023/09/12 01:08:49;;;;;;;28.13;3.75;;;;;;;23.96;63.41;99107.72;7309843;19;129424;-38
2023/09/12 01:11:14;;;;;;;83.07;6.47;;;;;;;23.91;63.04;99102.16;7310340;19;130140;-41
2023/09/12 01:13:40;;;;;;;43.63;4.37;;;;;;;23.96;62.96;99108.56;7314237;19;129099;-40
2023/09/12 01:16:05;;;;;;;47.07;4.57;;;;;;;23.96;62.68;99108.56;7311663;19;131485;-40
2023/09/12 01:18:32;;;;;;;73.43;6.13;;;;;;;23.96;62.83;99112.97;7309154;19;129608;-41
2023/09/12 01:21:22;;;;;;;53.30;5.00;;;;;;;23.97;64.13;99107.56;7312036;19;130399;-37
2023/09/12 01:24:18;;;;;;;43.72;4.53;;;;;;;23.98;64.17;99117.09;7314194;19;129280;-38
2023/09/12 01:27:13;;;;;;;37.60;4.10;;;;;;;23.97;64.09;99120.69;7312929;19;129993;-40
2023/09/12 01:29:40;;;;;;;80.95;6.72;;;;;;;23.96;63.21;99113.81;7309420;19;129746;-36
2023/09/12 01:32:05;;;;;;;;;;;;;;;24.01;64.00;99116.78;7312675;19;129270;-39
2023/09/12 01:34:31;;;;;;;69.80;6.03;;;;;;;23.97;62.71;99112.81;7314222;19;131004;-42
2023/09/12 01:36:56;;;;;;;31.77;4.20;;;;;;;23.97;63.29;99110.19;7314487;19;129484;-43
2023/09/12 01:39:21;;;;;;;52.80;5.07;;;;;;;23.96;63.30;99105.94;7309350;19;128957;-43
2023/09/12 01:41:49;;;;;;;69.00;5.47;;;;;;;23.96;63.52;99107.72;7312378;19;129314;-42
2023/09/12 01:44:15;;;;;;;61.22;5.35;;;;;;;23.94;62.91;99105.28;7313627;19;130964;-38
2023/09/12 01:46:42;;;;;;;47.83;4.77;;;;;;;23.96;63.26;99105.09;7310784;19;128991;-42
2023/09/12 01:49:10;;;;;;;37.97;3.95;;;;;;;23.95;63.46;99106.06;7310414;19;130252;-39
2023/09/12 01:51:35;;;;;;;115.43;8.15;;;;;;;23.96;63.12;99107.72;7313648;19;129641;-37
2023/09/12 01:54:03;;;;;;;44.83;4.80;;;;;;;23.95;63.11;99106.91;7312960;19;129137;-40
2023/09/12 01:56:30;;;;;;;58.33;5.53;;;;;;;23.96;63.55;99108.56;7312512;19;129909;-42
2023/09/12 01:58:56;;;;;;;37.38;3.85;;;;;;;23.95;62.72;99106.91;7311553;19;129261;-37
2023/09/12 02:01:21;;;;;;;82.22;6.35;;;;;;;23.96;63.14;99108.56;7307957;19;129490;-38
2023/09/12 02:03:47;;;;;;;69.10;5.57;;;;;;;23.95;62.86;99106.91;7312510;19;130420;-42
2023/09/12 02:06:12;;;;;;;29.00;4.03;;;;;;;23.97;63.37;99109.38;7312509;19;129577;-38
2023/09/12 02:08:37;;;;;;;51.63;5.17;;;;;;;23.97;63.22;99114.63;7310637;19;130286;-37
2023/09/12 02:11:03;;;;;;;65.77;5.20;;;;;;;23.87;62.94;99099.03;7310298;19;129437;-42
2023/09/12 02:13:28;;;;;;;56.80;5.13;;;;;;;23.97;63.15;99115.44;7312613;19;129904;-39
2023/09/12 02:16:03;;;;;;;53.17;4.90;;;;;;;23.96;64.16;99108.56;7310030;19;129533;-39
2023/09/12 02:18:28;;;;;;;79.47;6.72;;;;;;;23.96;63.26;99110.38;7308376;19;129333;-39
2023/09/12 02:20:54;;;;;;;90.43;6.70;;;;;;;23.97;63.42;99112.00;7308370;19;130461;-37
2023/09/12 02:23:19;;;;;;;28.30;3.20;;;;;;;23.96;63.20;99113.81;7311706;19;128933;-41
2023/09/12 02:25:44;;;;;;;36.10;4.00;;;;;;;23.97;63.15;99107.56;7310948;19;129806;-39
2023/09/12 02:28:10;;;;;;;43.73;4.40;;;;;;;23.97;63.35;99104.94;7309768;19;129243;-38
2023/09/12 02:30:40;;;;;;;84.57;6.03;;;;;;;23.96;63.96;99108.56;7309570;19;129711;-37
2023/09/12 02:33:05;;;;;;;36.45;4.28;;;;;;;23.96;63.31;99108.56;7310241;19;129624;-42
2023/09/12 02:35:31;;;;;;;38.20;4.30;;;;;;;23.96;63.35;99108.56;7308711;19;129398;-37
2023/09/12 02:37:56;;;;;;;84.87;6.53;;;;;;;23.97;63.22;99106.75;7310667;19;129829;-43
2023/09/12 02:40:21;;;;;;;65.60;5.10;;;;;;;23.97;63.38;99106.75;7309285;19;129685;-43
2023/09/12 02:42:47;;;;;;;24.20;3.53;;;;;;;23.97;63.12;99114.63;7308679;19;129290;-42
2023/09/12 02:45:12;;;;;;;40.23;4.40;;;;;;;23.96;63.29;99108.56;7311778;19;129245;-41
2023/09/12 02:47:37;;;;;;;83.07;6.67;;;;;;;23.97;63.32;99112.00;7310881;19;129565;-40
2023/09/12 02:50:03;;;;;;;80.43;6.23;;;;;;;23.97;63.34;99115.44;7308096;19;129852;-41
2023/09/12 02:52:28;;;;;;;32.03;4.07;;;;;;;23.88;62.80;99099.88;7311816;19;128986;-43
2023/09/12 02:54:53;;;;;;;30.70;3.63;;;;;;;23.97;62.90;99120.69;7312204;19;128867;-38
2023/09/12 02:57:19;;;;;;;42.43;4.30;;;;;;;23.91;62.81;99105.63;7311457;19;129164;-43
2023/09/12 02:59:44;;;;;;;50.77;4.17;;;;;;;23.98;62.70;99109.22;7309374;19;129313;-39
2023/09/12 03:02:10;;;;;;;39.03;4.10;;;;;;;23.86;63.12;99088.72;7309587;19;129380;-40
2023/09/12 03:04:36;;;;;;;43.03;4.37;;;;;;;23.97;63.55;99109.38;7311120;19;130036;-41
2023/09/12 03:07:01;;;;;;;72.33;5.83;;;;;;;23.87;62.72;99101.66;7311395;19;129299;-41
2023/09/12 03:09:26;;;;;;;45.73;4.17;;;;;;;23.95;62.72;99112.16;7308850;19;129216;-45
2023/09/12 03:11:52;;;;;;;61.03;5.23;;;;;;;23.97;63.51;99109.38;7310370;19;131679;-41
2023/09/12 03:14:17;;;;;;;36.63;4.10;;;;;;;23.97;63.16;99112.81;7310127;19;129474;-40
2023/09/12 03:16:43;;;;;;;88.83;6.23;;;;;;;23.97;63.35;99109.38;7309531;19;131193;-40
2023/09/12 03:19:08;;;;;;;38.10;3.93;;;;;;;23.97;63.14;99112.00;7310122;19;129565;-42
2023/09/12 03:21:33;;;;;;;47.50;4.50;;;;;;;23.98;62.91;99111.06;7311006;19;129041;-40
2023/09/12 03:23:58;;;;;;;29.13;3.63;;;;;;;23.97;62.84;99107.56;7309234;19;129380;-41
2023/09/12 03:26:24;;;;;;;90.03;6.33;;;;;;;23.97;63.45;99106.75;7310543;19;129251;-42
2023/09/12 03:28:51;;;;;;;79.67;6.33;;;;;;;23.96;62.99;99102.47;7307896;19;130021;-41
2023/09/12 03:31:16;;;;;;;35.25;3.90;;;;;;;23.86;62.52;99083.47;7308686;19;128902;-37
2023/09/12 03:33:42;;;;;;;70.00;5.60;;;;;;;23.95;63.46;99099.03;7309460;19;129785;-40
2023/09/12 03:36:08;;;;;;;65.30;4.80;;;;;;;23.96;63.23;99103.31;7310056;19;130571;-40
2023/09/12 03:38:35;;;;;;;73.68;5.97;;;;;;;23.96;63.10;99094.59;7310097;19;129438;-40
2023/09/12 03:41:01;;;;;;;27.60;3.55;;;;;;;23.86;63.40;99080.84;7306339;19;130070;-41
2023/09/12 03:43:26;;;;;;;52.55;4.63;;;;;;;23.97;63.39;99091.81;7307756;19;129422;-39
2023/09/12 03:45:52;;;;;;;63.20;4.93;;;;;;;23.97;62.95;99091.81;7307780;19;129302;-39
2023/09/12 03:48:17;;;;;;;46.00;4.50;;;;;;;23.97;63.18;99093.59;7308700;19;129607;-41
2023/09/12 03:50:43;;;;;;;52.10;5.07;;;;;;;23.97;63.10;99098.84;7306631;19;129115;-36
2023/09/12 03:53:08;;;;;;;34.63;3.57;;;;;;;23.96;63.10;99090.19;7310391;19;128945;-42
2023/09/12 03:55:34;;;;;;;68.80;5.27;;;;;;;23.97;63.20;99098.84;7309075;19;129929;-38
2023/09/12 03:57:59;;;;;;;84.20;6.73;;;;;;;23.96;63.17;99087.56;7304659;19;129842;-39
2023/09/12 04:00:25;;;;;;;31.67;3.67;;;;;;;23.97;62.80;99091.81;7304220;19;129567;-43
2023/09/12 04:02:50;;;;;;;55.47;4.63;;;;;;;23.98;63.20;99100.53;7306997;19;131323;-40
2023/09/12 04:05:16;;;;;;;56.60;5.03;;;;;;;23.97;63.28;99099.69;7309351;19;129474;-37
2023/09/12 04:07:41;;;;;;;56.23;5.00;;;;;;;23.97;63.18;99104.94;7307810;19;129824;-44
2023/09/12 04:10:06;;;;;;;57.20;5.17;;;;;;;23.95;63.51;99104.28;7306233;19;129522;-38
2023/09/12 04:12:32;;;;;;;92.10;6.43;;;;;;;23.97;63.26;99107.56;7306967;19;130842;-42
2023/09/12 04:14:57;;;;;;;33.97;3.67;;;;;;;23.97;62.72;99104.94;7308160;19;129881;-43
2023/09/12 04:17:23;;;;;;;28.03;3.23;;;;;;;23.98;62.86;99103.97;7309243;19;130133;-39
2023/09/12 04:19:48;;;;;;;49.47;4.23;;;;;;;23.97;63.40;99104.09;7305770;19;130369;-40
2023/09/12 04:22:14;;;;;;;65.23;5.23;;;;;;;23.86;62.92;99091.34;7309160;19;129083;-44
2023/09/12 04:24:39;;;;;;;52.57;4.90;;;;;;;23.96;63.53;99108.56;7290266;19;130404;-37
2023/09/12 04:27:05;;;;;;;35.80;4.00;;;;;;;23.97;62.46;99104.09;7307974;19;129947;-39
2023/09/12 04:29:35;;;;;;;48.40;4.70;;;;;;;23.97;63.66;99107.56;7306411;19;129123;-43
2023/09/12 04:32:05;;;;;;;63.22;4.90;;;;;;;23.96;63.70;99108.56;7303785;19;129859;-43
2023/09/12 04:34:30;;;;;;;38.75;4.00;;;;;;;23.96;62.90;99105.09;7306939;19;129696;-42
2023/09/12 04:36:56;;;;;;;30.83;3.50;;;;;;;23.97;62.65;99101.47;7308350;19;129746;-40
2023/09/12 04:39:21;;;;;;;51.50;4.33;;;;;;;23.96;63.49;99103.31;7303418;19;129181;-41
2023/09/12 04:41:47;;;;;;;99.27;6.70;;;;;;;23.96;63.55;99100.69;7306876;19;129137;-42
2023/09/12 04:44:12;;;;;;;80.23;6.13;;;;;;;23.94;63.49;99094.78;7306745;19;130498;-41
2023/09/12 04:46:38;;;;;;;49.97;4.73;;;;;;;23.96;63.29;99094.59;7304273;19;131715;-39
2023/09/12 04:49:03;;;;;;;73.63;5.87;;;;;;;23.96;63.35;99098.06;7299321;19;130136;-42
2023/09/12 04:51:29;;;;;;;66.40;5.27;;;;;;;23.97;63.57;99094.44;7305441;19;129176;-39
2023/09/12 04:53:54;;;;;;;54.90;4.70;;;;;;;23.97;63.04;99104.94;7313355;19;130976;-42
2023/09/12 04:56:20;;;;;;;40.67;3.97;;;;;;;23.95;63.53;99091.16;7313620;19;130483;-40
2023/09/12 04:58:46;;;;;;;71.13;5.77;;;;;;;23.97;63.39;99097.06;7314667;19;129722;-41
2023/09/12 05:01:11;;;;;;;65.33;5.60;;;;;;;23.97;63.38;99094.44;7310987;19;129402;-40
2023/09/12 05:03:37;;;;;;;38.03;4.23;;;;;;;23.98;63.48;99105.81;7315326;19;129508;-42
2023/09/12 05:06:03;;;;;;;18.03;3.43;;;;;;;23.97;63.32;99102.31;7309805;19;129387;-40
2023/09/12 05:08:29;;;;;;;95.10;7.20;;;;;;;23.96;62.81;99098.06;7311867;19;129181;-37
2023/09/12 05:10:54;;;;;;;59.23;4.97;;;;;;;23.87;63.26;99088.53;7312372;19;130544;-42
2023/09/12 05:13:19;;;;;;;52.93;5.50;;;;;;;23.96;63.49;99100.69;7313159;19;129175;-37
2023/09/12 05:15:45;;;;;;;50.33;4.93;;;;;;;23.97;63.30;99096.22;7308653;19;129306;-40
2023/09/12 05:18:10;;;;;;;56.70;4.60;;;;;;;23.97;63.22;99097.06;7312873;19;130949;-40
2023/09/12 05:20:36;;;;;;;71.30;5.67;;;;;;;23.97;63.04;99098.84;7310265;19;129050;-41
2023/09/12 05:23:01;;;;;;;38.30;4.00;;;;;;;23.95;62.98;99093.78;7314412;19;130381;-41
2023/09/12 05:25:27;;;;;;;46.43;4.47;;;;;;;23.85;62.97;99090.50;7313649;19;129599;-38
2023/09/12 05:27:52;;;;;;;118.20;8.33;;;;;;;23.95;63.59;99093.78;7312293;19;129209;-44
2023/09/12 05:30:18;;;;;;;35.37;4.10;;;;;;;23.97;63.54;99097.06;7312025;19;129101;-41
2023/09/12 05:32:43;;;;;;;57.67;5.33;;;;;;;23.96;63.28;99103.31;7311451;19;129032;-41
2023/09/12 05:35:09;;;;;;;75.50;6.50;;;;;;;23.97;62.76;99109.38;7313934;19;129595;-38
2023/09/12 05:37:34;;;;;;;64.80;5.37;;;;;;;23.96;63.14;99116.44;7313174;19;128909;-39
2023/09/12 05:40:00;;;;;;;49.90;5.10;;;;;;;23.97;62.77;99118.06;7311484;19;129720;-38
2023/09/12 05:42:25;;;;;;;29.00;4.27;;;;;;;23.95;63.39;99112.16;7313681;19;129428;-39
2023/09/12 05:44:53;;;;;;;65.23;6.07;;;;;;;23.94;62.76;99109.69;7310579;19;129461;-42
2023/09/12 05:47:19;;;;;;;63.67;5.30;;;;;;;23.95;63.03;99112.16;7312956;19;129423;-41
2023/09/12 05:49:44;;;;;;;54.17;5.23;;;;;;;23.95;63.51;99114.78;7310512;19;129168;-43
2023/09/12 05:52:10;;;;;;;42.80;4.93;;;;;;;23.95;63.03;99114.78;7311508;19;129969;-41
2023/09/12 05:54:36;;;;;;;66.03;6.17;;;;;;;23.96;63.70;99119.06;7311828;19;129348;-40
2023/09/12 05:57:02;;;;;;;59.43;5.83;;;;;;;23.96;62.92;99123.50;7312106;19;130263;-41
2023/09/12 05:59:27;;;;;;;10.17;3.37;;;;;;;23.96;63.63;99123.50;7314506;19;129412;-37
2023/09/12 06:01:52;;;;;;;46.67;5.13;;;;;;;23.94;63.03;99130.69;7311596;19;130805;-42
2023/09/12 06:04:18;;;;;;;65.47;5.97;;;;;;;23.96;63.26;99134.81;7311674;19;130438;-36
2023/09/12 06:06:43;;;;;;;45.33;4.80;;;;;;;23.96;62.94;99123.50;7313738;19;129117;-41
2023/09/12 06:09:09;;;;;;;64.17;5.90;;;;;;;23.85;63.55;99116.75;7310150;19;130950;-39
2023/09/12 06:11:34;;;;;;;22.27;3.97;;;;;;;23.95;63.00;99138.41;7312660;19;130271;-43
2023/09/12 06:14:00;;;;;;;69.20;5.87;;;;;;;23.96;63.28;99134.81;7310888;19;129653;-38
2023/09/12 06:16:26;;;;;;;26.57;4.07;;;;;;;23.95;63.57;99127.91;7313499;19;128906;-42
2023/09/12 06:18:53;;;;;;;45.70;5.35;;;;;;;23.95;63.53;99138.41;7311966;19;129351;-41
2023/09/12 06:21:21;;;;;;;29.70;4.55;;;;;;;23.95;62.84;99134.97;7307798;19;129342;-39
2023/09/12 06:23:46;;;;;;;76.95;6.53;;;;;;;23.95;62.86;99137.59;7311256;19;129305;-40
2023/09/12 06:26:12;;;;;;;41.80;4.87;;;;;;;23.96;63.25;99140.06;7311396;19;128911;-39
2023/09/12 06:28:37;;;;;;;74.03;6.83;;;;;;;23.95;62.95;99146.28;7307182;19;129467;-43
2023/09/12 06:31:02;;;;;;;31.90;5.07;;;;;;;23.96;63.10;99147.94;7303376;19;129335;-39
2023/09/12 06:33:28;;;;;;;87.90;7.37;;;;;;;23.96;63.05;99145.31;7306245;19;129431;-42
2023/09/12 06:35:54;;;;;;;100.93;8.37;;;;;;;23.96;63.64;99149.75;7305335;19;130214;-38
2023/09/12 06:38:21;;;;;;;82.30;7.93;;;;;;;23.96;63.07;99150.56;7303700;19;129232;-38
2023/09/12 06:40:47;;;;;;;59.33;6.13;;;;;;;23.97;63.61;99146.13;7304051;19;129450;-41
2023/09/12 06:43:13;;;;;;;92.90;7.57;;;;;;;23.97;63.00;99146.94;7304964;19;130608;-43
2023/09/12 06:45:40;;;;;;;76.93;6.83;;;;;;;23.97;63.92;99152.22;7306988;19;129209;-40
2023/09/12 06:48:06;;;;;;;64.05;6.38;;;;;;;23.97;63.25;99157.47;7302960;19;131136;-41
2023/09/12 06:50:31;;;;;;;41.33;4.97;;;;;;;23.97;63.17;99149.59;7308996;19;129336;-39
2023/09/12 06:52:56;;;;;;;94.80;7.57;;;;;;;23.97;63.59;99157.47;7311297;19;130029;-41
2023/09/12 06:55:22;;;;;;;43.23;5.60;;;;;;;23.92;63.23;99143.16;7310218;19;128895;-43
2023/09/12 06:57:47;;;;;;;67.57;6.70;;;;;;;23.96;63.57;99158.44;7310898;19;129310;-38
2023/09/12 07:00:13;;;;;;;48.20;5.83;;;;;;;23.96;63.33;99155.81;7308887;19;129798;-36
2023/09/12 07:02:39;;;;;;;61.55;5.82;;;;;;;23.97;63.26;99151.38;7309145;19;129690;-43
2023/09/12 07:05:04;;;;;;;27.27;4.67;;;;;;;23.97;63.16;99151.38;7310920;19;129047;-40
2023/09/12 07:07:30;;;;;;;52.20;5.73;;;;;;;23.96;63.68;99155.81;7309545;19;129534;-42
2023/09/12 07:09:56;;;;;;;67.10;6.67;;;;;;;23.94;62.88;99143.84;7306768;19;130552;-37
2023/09/12 07:12:21;;;;;;;49.67;5.93;;;;;;;23.96;63.68;99158.44;7307360;19;129167;-39
2023/09/12 07:14:47;;;;;;;54.40;6.17;;;;;;;23.95;62.92;99151.53;7307072;19;129406;-42
2023/09/12 07:17:12;;;;;;;35.27;5.27;;;;;;;23.95;63.56;99159.41;7310814;19;129017;-39
2023/09/12 07:19:37;;;;;;;61.37;6.10;;;;;;;23.94;63.28;99160.41;7309046;19;129517;-38
2023/09/12 07:22:03;;;;;;;45.07;5.70;;;;;;;23.95;63.60;99159.41;7309270;19;129622;-39
2023/09/12 07:24:28;;;;;;;45.77;5.67;;;;;;;23.96;63.21;99166.34;7308841;19;129977;-41
2023/09/12 07:26:54;;;;;;;48.97;5.70;;;;;;;23.85;63.38;99143.00;7309187;19;128979;-37
2023/09/12 07:29:19;;;;;;;72.33;6.80;;;;;;;23.94;63.58;99157.78;7306688;19;129398;-42
2023/09/12 07:31:44;;;;;;;49.53;5.87;;;;;;;23.95;63.55;99159.41;7310013;19;129723;-41
2023/09/12 07:34:11;;;;;;;9.40;3.87;;;;;;;23.96;63.43;99161.09;7309544;19;128903;-40
2023/09/12 07:36:37;;;;;;;63.13;6.18;;;;;;;23.94;63.70;99157.78;7309600;19;129140;-40
2023/09/12 07:39:03;;;;;;;77.73;6.83;;;;;;;23.95;63.06;99159.41;7308119;19;130184;-39
2023/09/12 07:41:29;;;;;;;34.25;4.65;;;;;;;23.95;63.20;99158.59;7308151;19;131124;-39
2023/09/12 07:43:54;;;;;;;35.00;4.83;;;;;;;23.95;62.93;99159.41;7304725;19;129460;-39
2023/09/12 07:46:20;;;;;;;51.60;5.97;;;;;;;23.95;63.27;99156.78;7307619;19;129263;-39
2023/09/12 07:48:45;;;;;;;72.90;7.33;;;;;;;23.94;63.67;99163.03;7307450;19;130201;-41
2023/09/12 07:51:12;;;;;;;35.80;5.37;;;;;;;23.95;63.15;99161.22;7304706;19;129949;-41
2023/09/12 07:53:38;;;;;;;67.78;7.07;;;;;;;23.94;62.90;99165.66;7310319;19;129450;-36
2023/09/12 07:56:03;;;;;;;66.43;6.57;;;;;;;23.94;63.52;99163.03;7305704;19;129774;-41
2023/09/12 07:58:29;;;;;;;159.90;12.23;;;;;;;23.98;63.67;99156.50;7303747;19;131479;-39
2023/09/12 08:00:54;;;;;;;48.57;6.27;;;;;;;24.01;62.79;99163.22;7306019;19;130140;-40
2023/09/12 08:03:19;;;;;;;33.63;6.17;;;;;;;24.05;62.39;99160.09;7309886;19;129645;-41
2023/09/12 08:05:54;;;;;;;56.73;6.87;;;;;;;24.11;63.36;99169.13;7307889;19;129125;-41
2023/09/12 08:08:20;;;;;;;81.15;8.23;;;;;;;24.11;62.52;99169.13;7308359;19;129189;-43
2023/09/12 08:10:46;;;;;;;45.00;6.67;;;;;;;24.12;62.02;99160.25;7306658;19;129570;-38
2023/09/12 08:13:11;;;;;;;35.78;6.82;;;;;;;24.13;62.27;99156.66;7308651;19;129095;-40
2023/09/12 08:15:36;;;;;;;39.07;6.53;;;;;;;24.14;62.03;99161.75;7308363;19;129851;-43
2023/09/12 08:18:02;;;;;;;65.40;7.90;;;;;;;24.14;61.74;99167.00;7307833;19;129628;-42
2023/09/12 08:20:27;;;;;;;49.93;7.20;;;;;;;24.18;61.68;99160.41;7306871;19;131198;-40
2023/09/12 08:22:53;;;;;;;58.57;8.03;;;;;;;24.20;61.50;99174.22;7308821;19;129305;-39
2023/09/12 08:25:18;;;;;;;50.63;6.93;;;;;;;24.21;61.08;99167.16;7309095;19;129418;-40
2023/09/12 08:27:44;;;;;;;59.47;8.17;;;;;;;24.22;61.47;99166.97;7314384;19;130920;-42
2023/09/12 08:30:10;;;;;;;32.07;6.23;;;;;;;24.22;61.65;99172.25;7311068;19;129598;-39
2023/09/12 08:32:35;;;;;;;21.40;6.47;;;;;;;24.18;61.80;99160.41;7315996;19;129656;-37
2023/09/12 08:35:02;;;;;;;94.30;9.43;;;;;;;24.17;61.76;99158.78;7314505;19;129341;-38
2023/09/12 08:37:27;;;;;;;58.53;7.80;;;;;;;24.14;61.57;99151.25;7316826;19;130249;-39
2023/09/12 08:39:56;;;;;;;65.10;7.93;;;;;;;24.31;61.34;99175.69;7314104;19;129174;-37
2023/09/12 08:42:22;;;;;;;31.15;5.72;;;;;;;24.33;61.04;99169.25;7312889;19;129965;-40
2023/09/12 08:44:48;;;;;;;84.22;8.75;;;;;;;24.36;60.98;99168.13;7314578;19;129168;-42
2023/09/12 08:47:15;;;;;;;43.33;6.93;;;;;;;24.35;60.54;99171.72;7316589;19;129622;-40
2023/09/12 08:49:42;;;;;;;45.60;7.07;;;;;;;24.35;60.35;99166.44;7313394;19;129994;-41
2023/09/12 08:52:07;;;;;;;73.68;8.57;;;;;;;24.35;60.69;99171.72;7314689;19;129968;-39
2023/09/12 08:54:33;;;;;;;74.40;8.37;;;;;;;24.27;60.77;99154.16;7315752;19;129155;-39
2023/09/12 08:57:04;;;;;;;92.60;9.87;;;;;;;24.38;61.27;99169.56;7313678;19;131163;-42
2023/09/12 08:59:32;;;;;;;35.92;6.38;;;;;;;24.40;60.51;99169.41;7314281;19;129725;-41
2023/09/12 09:01:59;;;;;;;36.97;7.38;;;;;;;24.43;60.93;99169.06;7314682;19;130132;-39
2023/09/12 09:04:28;;;;;;;57.22;7.72;;;;;;;24.43;60.41;99164.63;7313638;19;129028;-39
2023/09/12 09:06:55;;;;;;;80.18;8.65;;;;;;;24.42;60.56;99163.00;7313448;19;129386;-43
2023/09/12 09:09:22;;;;;;;87.03;9.18;;;;;;;24.42;60.75;99165.63;7310692;19;130236;-39
2023/09/12 09:11:48;;;;;;;33.30;6.07;;;;;;;24.48;60.07;99164.13;7313314;19;130502;-42
2023/09/12 09:14:13;;;;;;;73.73;8.27;;;;;;;24.45;60.46;99160.03;7313967;19;129523;-40
2023/09/12 09:16:39;;;;;;;63.93;7.00;;;;;;;24.45;59.97;99157.41;7313838;19;129033;-41
2023/09/12 09:19:10;;;;;;;63.70;7.93;;;;;;;24.48;60.56;99155.44;7314145;19;130500;-40
2023/09/12 09:21:37;;;;;;;45.20;6.68;;;;;;;24.46;59.96;99153.78;7314738;19;128842;-40
2023/09/12 09:24:07;;;;;;;62.78;7.28;;;;;;;24.46;61.01;99152.97;7313529;19;130089;-38
2023/09/12 09:26:53;;;;;;;125.07;10.63;;;;;;;24.48;61.88;99145.72;7310124;19;130578;-40
2023/09/12 09:29:20;;;;;;;70.35;7.68;;;;;;;24.54;60.28;99146.88;7312490;19;129489;-41
2023/09/12 09:31:47;;;;;;;28.33;5.90;;;;;;;24.56;59.96;99147.53;7314943;19;128917;-40
2023/09/12 09:34:13;;;;;;;37.20;5.70;;;;;;;24.55;60.42;99145.88;7314047;19;129067;-37
2023/09/12 09:36:43;;;;;;;59.80;7.23;;;;;;;24.57;61.12;99149.16;7314362;19;130378;-41
2023/09/12 09:39:09;;;;;;;88.00;8.32;;;;;;;24.55;60.26;99140.59;7308495;19;129735;-43
2023/09/12 09:41:34;;;;;;;64.43;7.63;;;;;;;24.54;60.63;99145.06;7309805;19;129659;-40
2023/09/12 09:44:00;;;;;;;59.57;7.27;;;;;;;24.54;60.61;99145.06;7313642;19;129484;-39
2023/09/12 09:46:25;;;;;;;20.87;5.57;;;;;;;24.55;60.34;99146.69;7314227;19;130540;-43
2023/09/12 09:48:52;;;;;;;82.67;8.13;;;;;;;24.54;60.71;99141.59;7311432;19;129115;-40
2023/09/12 09:51:17;;;;;;;33.22;5.45;;;;;;;24.55;60.36;99140.59;7311937;19;129054;-40
2023/09/12 09:53:43;;;;;;;23.10;5.63;;;;;;;24.58;59.84;99148.19;7314950;19;129245;-40
2023/09/12 09:56:14;;;;;;;50.43;6.40;;;;;;;24.54;60.67;99144.25;7311897;19;129660;-38
2023/09/12 09:58:48;;;;;;;88.30;8.27;;;;;;;24.53;61.53;99143.41;7313319;19;130279;-43
2023/09/12 10:01:16;;;;;;;51.83;6.78;;;;;;;24.55;60.58;99143.25;7309784;19;128913;-42
2023/09/12 10:03:44;;;;;;;56.70;7.25;;;;;;;24.45;59.87;99130.28;7313069;19;130484;-40
2023/09/12 10:06:10;;;;;;;56.15;7.28;;;;;;;24.55;59.88;99145.88;7312519;19;129507;-39
2023/09/12 10:08:36;;;;;;;88.47;8.10;;;;;;;24.56;59.84;99148.31;7313003;19;129261;-41
2023/09/12 10:11:03;;;;;;;;;;;;;;;24.57;61.47;99142.09;7311472;19;129717;-40
2023/09/12 10:13:32;;;;;;;35.65;6.07;;;;;;;24.60;60.56;99143.56;7313040;19;129697;-41
2023/09/12 10:16:00;;;;;;;47.85;6.35;;;;;;;24.61;60.26;99142.56;7312876;19;130288;-37
2023/09/12 10:18:28;;;;;;;89.32;8.70;;;;;;;24.61;60.13;99147.84;7309939;19;129784;-41
2023/09/12 10:20:58;;;;;;;60.55;6.70;;;;;;;24.62;60.00;99152.91;7310623;19;129028;-40
2023/09/12 10:23:36;;;;;;;51.38;6.72;;;;;;;24.58;61.55;99140.28;7310689;19;128927;-40
2023/09/12 10:26:02;;;;;;;61.80;6.93;;;;;;;24.58;60.57;99151.59;7310684;19;129338;-38
2023/09/12 10:28:28;;;;;;;49.93;7.30;;;;;;;24.58;59.79;99148.97;7309878;19;130622;-40
2023/09/12 10:30:57;;;;;;;62.87;6.67;;;;;;;24.61;60.41;99150.47;7309466;19;128878;-42
2023/09/12 10:33:22;;;;;;;53.10;6.57;;;;;;;24.64;60.21;99150.13;7312336;19;129030;-38
2023/09/12 10:35:50;;;;;;;45.03;6.07;;;;;;;24.52;59.95;99135.69;7311067;19;129337;-40
2023/09/12 10:38:18;;;;;;;33.20;5.25;;;;;;;24.61;60.75;99147.84;7308385;19;129400;-40
2023/09/12 10:40:47;;;;;;;69.20;7.00;;;;;;;24.58;60.19;99150.81;7309999;19;130303;-40
2023/09/12 10:43:14;;;;;;;70.22;7.28;;;;;;;24.54;60.04;99146.88;7312433;19;129691;-42
2023/09/12 10:45:40;;;;;;;44.28;5.72;;;;;;;24.54;60.27;99149.50;7310409;19;129676;-42
2023/09/12 10:48:06;;;;;;;50.92;6.43;;;;;;;24.45;60.52;99128.50;7311184;19;129784;-40
2023/09/12 10:50:31;;;;;;;79.23;7.60;;;;;;;24.55;60.28;99143.25;7308485;19;129426;-41
2023/09/12 10:53:09;;;;;;;94.80;9.23;;;;;;;24.54;61.16;99138.97;7311195;19;129584;-41
2023/09/12 10:55:35;;;;;;;29.73;5.35;;;;;;;24.59;60.24;99147.19;7313474;19;129675;-39
2023/09/12 10:58:12;;;;;;;66.57;7.00;;;;;;;24.61;60.87;99135.50;7310436;19;130421;-41
2023/09/12 11:00:39;;;;;;;28.42;4.97;;;;;;;24.66;60.78;99138.44;7308349;19;129997;-43
2023/09/12 11:03:27;;;;;;;66.93;7.25;;;;;;;24.67;62.03;99142.72;7309790;19;129686;-41
2023/09/12 11:05:54;;;;;;;57.58;6.40;;;;;;;24.67;60.17;99141.88;7310352;19;130147;-42
2023/09/12 11:08:20;;;;;;;65.28;7.38;;;;;;;24.64;59.85;99139.59;7307480;19;129358;-39
2023/09/12 11:11:20;;;;;;;37.77;5.20;;;;;;;24.64;61.76;99139.59;7309918;19;129525;-38
2023/09/12 11:13:46;;;;;;;35.75;5.40;;;;;;;24.66;60.38;99138.44;7312884;19;129796;-40